Time;durP1;ratioP1;P1;durP2;ratioP2;P2;SDS_P1;SDS_P2;PMS_P1;PMS_P2;Temp;Humidity;BMP_temperature;BMP_pressure;BME280_temperature;BME280_humidity;BME280_pressure;Samples;Min_cycle;Max_cycle;Signal;HPM_P1;HPM_P2
2023/07/03 00:00:00;;;;;;;;;;;;;;;20.96;100.00;98991.53;299363;32;3602;-77
2023/07/03 00:00:14;;;;;;;;;;;;;;;20.96;100.00;99001.31;301014;32;4010;-76
2023/07/03 00:00:26;;;;;;;;;;;;;;;20.96;100.00;98990.69;304507;32;4499;-78
2023/07/03 00:00:37;;;;;;;;;;;;;;;20.97;100.00;99003.00;302620;32;1349;-78
2023/07/03 00:00:47;;;;;;;;;;;;;;;20.97;100.00;98998.53;299339;32;4262;-79
2023/07/03 00:00:59;;;;;;;;;;;;;;;20.97;100.00;98997.69;300530;32;3167;-78
2023/07/03 00:01:09;;;;;;;;;;;;;;;20.96;100.00;98994.19;300375;32;3416;-77
2023/07/03 00:01:19;;;;;;;;;;;;;;;20.97;100.00;98997.69;300850;32;1223;-76
2023/07/03 00:01:29;;;;;;;;;;;;;;;20.96;100.00;98994.19;299086;32;4076;-77
2023/07/03 00:01:41;;;;;;;;;;;;;;;20.96;100.00;98994.19;296283;33;6218;-77
2023/07/03 00:01:51;;;;;;;;;;;;;;;20.95;100.00;99002.31;295324;33;794;-77
2023/07/03 00:02:01;;;;;;;;;;;;;;;20.94;100.00;98998.81;286642;33;6490;-76
2023/07/03 00:02:11;;;;;;;;;;;;;;;20.93;100.00;98997.13;287258;33;5480;-77
2023/07/03 00:02:21;;;;;;;;;;;;;;;20.93;100.00;98995.31;289246;34;1208;-77
2023/07/03 00:02:32;;;;;;;;;;;;;;;20.93;100.00;98997.97;289579;34;5425;-77
2023/07/03 00:02:42;;;;;;;;;;;;;;;20.93;100.00;98997.97;287974;34;5366;-76
2023/07/03 00:02:52;;;;;;;;;;;;;;;20.93;100.00;98992.66;285439;34;1280;-76
2023/07/03 00:03:03;;;;;;;;;;;;;;;20.93;100.00;99000.63;280696;34;5516;-76
2023/07/03 00:03:15;;;;;;;;;;;;;;;20.93;100.00;98997.13;283226;34;4336;-76
2023/07/03 00:05:35;;;;;;;;;;;;;;;20.92;100.00;99001.63;2501670;27;20619;-76
2023/07/03 00:05:46;;;;;;;;;;;;;;;20.91;100.00;98997.28;354348;27;839;-76
2023/07/03 00:05:56;;;;;;;;;;;;;;;20.92;100.00;98998.94;352903;28;1527;-77
2023/07/03 00:06:07;;;;;;;;;;;;;;;20.92;100.00;99001.63;350222;28;1206;-76
2023/07/03 00:06:17;;;;;;;;;;;;;;;20.93;100.00;98999.78;348904;28;1584;-76
2023/07/03 00:06:29;;;;;;;;;;;;;;;20.92;100.00;98996.28;350664;28;1501;-76
2023/07/03 00:06:39;;;;;;;;;;;;;;;20.95;100.00;98999.66;350317;28;1252;-76
2023/07/03 00:06:49;;;;;;;;;;;;;;;20.94;100.00;98993.50;350259;28;1341;-76
2023/07/03 00:06:59;;;;;;;;;;;;;;;20.94;100.00;99001.47;351548;28;1684;-76
2023/07/03 00:07:10;;;;;;;;;;;;;;;20.93;100.00;98992.66;351532;28;1409;-76
2023/07/03 00:07:20;;;;;;;;;;;;;;;20.95;100.00;98994.31;350272;28;1391;-77
2023/07/03 00:07:30;;;;;;;;;;;;;;;20.94;100.00;99001.47;351555;28;1326;-77
2023/07/03 00:07:40;;;;;;;;;;;;;;;20.95;100.00;99000.50;347658;28;1219;-76
2023/07/03 00:07:51;;;;;;;;;;;;;;;20.95;100.00;98995.16;351685;28;807;-76
2023/07/03 00:08:01;;;;;;;;;;;;;;;20.96;100.00;99001.31;350135;28;1351;-76
2023/07/03 00:08:12;;;;;;;;;;;;;;;20.95;100.00;98999.66;348911;28;1217;-76
2023/07/03 00:08:22;;;;;;;;;;;;;;;20.96;100.00;98998.66;348834;28;1183;-76
2023/07/03 00:08:33;;;;;;;;;;;;;;;20.91;100.00;98999.94;348852;28;1166;-77
2023/07/03 00:08:43;;;;;;;;;;;;;;;20.91;100.00;99001.75;350249;28;1207;-76
2023/07/03 00:08:53;;;;;;;;;;;;;;;20.90;100.00;98995.59;350564;28;1423;-76
2023/07/03 00:09:05;;;;;;;;;;;;;;;20.90;100.00;98997.41;350915;28;1196;-76
2023/07/03 00:09:16;;;;;;;;;;;;;;;20.91;100.00;99002.59;351738;28;913;-77
2023/07/03 00:09:27;;;;;;;;;;;;;;;20.92;100.00;98998.13;348590;28;1460;-77
2023/07/03 00:09:37;;;;;;;;;;;;;;;20.90;100.00;98992.94;350342;28;882;-77
2023/07/03 00:09:47;;;;;;;;;;;;;;;20.90;100.00;98998.25;350139;28;973;-76
2023/07/03 00:09:57;;;;;;;;;;;;;;;20.93;100.00;98997.13;348752;28;1338;-76
2023/07/03 00:10:08;;;;;;;;;;;;;;;20.92;100.00;98996.28;346004;28;1516;-77
2023/07/03 00:10:21;;;;;;;;;;;;;;;20.93;100.00;99000.63;344788;28;1233;-76
2023/07/03 00:10:31;;;;;;;;;;;;;;;20.93;100.00;98997.97;347603;28;1259;-77
2023/07/03 00:10:41;;;;;;;;;;;;;;;20.94;100.00;98996.16;347354;28;1426;-77
2023/07/03 00:10:58;;;;;;;;;;;;;;;20.93;100.00;98997.97;344822;28;789;-76
2023/07/03 00:11:08;;;;;;;;;;;;;;;20.92;100.00;99001.63;344832;28;1056;-76
2023/07/03 00:11:18;;;;;;;;;;;;;;;20.92;100.00;99003.44;343463;28;1421;-76
2023/07/03 00:11:28;;;;;;;;;;;;;;;20.93;100.00;99000.63;344806;28;833;-76
2023/07/03 00:11:39;;;;;;;;;;;;;;;20.91;100.00;98994.63;346447;28;1280;-76
2023/07/03 00:11:49;;;;;;;;;;;;;;;20.91;100.00;99001.75;344984;28;1017;-76
2023/07/03 00:12:00;;;;;;;;;;;;;;;20.89;100.00;98996.56;343612;28;1032;-77
2023/07/03 00:12:11;;;;;;;;;;;;;;;20.89;100.00;98999.25;344966;28;1349;-78
2023/07/03 00:12:21;;;;;;;;;;;;;;;20.88;100.00;99000.22;340329;28;1357;-77
2023/07/03 00:12:31;;;;;;;;;;;;;;;20.89;100.00;98998.41;342960;28;863;-77
2023/07/03 00:12:42;;;;;;;;;;;;;;;20.89;100.00;99007.22;340792;29;1330;-77
2023/07/03 00:12:52;;;;;;;;;;;;;;;20.89;100.00;99001.06;340756;29;1283;-77
2023/07/03 00:13:02;;;;;;;;;;;;;;;20.89;100.00;99001.06;340683;29;904;-77
2023/07/03 00:13:13;;;;;;;;;;;;;;;20.89;100.00;98998.41;339972;29;1419;-76
2023/07/03 00:13:23;;;;;;;;;;;;;;;20.88;100.00;98997.56;338091;29;1331;-77
2023/07/03 00:13:33;;;;;;;;;;;;;;;20.89;100.00;98996.56;340863;29;880;-77
2023/07/03 00:13:43;;;;;;;;;;;;;;;20.89;100.00;99001.06;342007;28;1194;-77
2023/07/03 00:13:54;;;;;;;;;;;;;;;20.90;100.00;98997.41;344599;28;1028;-77
2023/07/03 00:14:04;;;;;;;;;;;;;;;20.89;100.00;99001.06;344593;28;1273;-77
2023/07/03 00:14:14;;;;;;;;;;;;;;;20.89;100.00;99001.91;343311;28;1486;-77
2023/07/03 00:14:24;;;;;;;;;;;;;;;20.89;100.00;98996.56;341967;28;1276;-76
2023/07/03 00:14:35;;;;;;;;;;;;;;;20.90;100.00;98992.94;340737;29;1277;-76
2023/07/03 00:14:45;;;;;;;;;;;;;;;20.90;100.00;98998.25;338901;29;986;-76
2023/07/03 00:14:55;;;;;;;;;;;;;;;20.90;100.00;98998.25;342120;28;1207;-77
2023/07/03 00:15:05;;;;;;;;;;;;;;;20.90;100.00;99006.25;342217;28;856;-77
2023/07/03 00:15:16;;;;;;;;;;;;;;;20.91;100.00;99002.59;336925;29;1367;-77
2023/07/03 00:15:26;;;;;;;;;;;;;;;20.91;100.00;98993.78;336113;29;1316;-77
2023/07/03 00:15:36;;;;;;;;;;;;;;;20.90;100.00;99000.91;336839;29;873;-77
2023/07/03 00:15:46;;;;;;;;;;;;;;;20.91;100.00;99007.91;338685;29;1408;-77
2023/07/03 00:15:58;;;;;;;;;;;;;;;20.90;100.00;98998.25;338103;29;1443;-77
2023/07/03 00:16:08;;;;;;;;;;;;;;;20.89;100.00;99004.56;336552;29;2046;-76
2023/07/03 00:16:18;;;;;;;;;;;;;;;20.88;100.00;99000.22;338061;29;785;-76
2023/07/03 00:16:28;;;;;;;;;;;;;;;20.87;100.00;99001.19;333977;29;1961;-76
2023/07/03 00:16:39;;;;;;;;;;;;;;;20.87;100.00;99001.19;331824;29;1521;-76
2023/07/03 00:16:49;;;;;;;;;;;;;;;20.87;100.00;99005.69;335599;29;1398;-76
2023/07/03 00:17:00;;;;;;;;;;;;;;;20.87;100.00;99001.19;334479;29;1318;-76
2023/07/03 00:17:10;;;;;;;;;;;;;;;20.87;100.00;98997.69;333722;29;1244;-76
2023/07/03 00:17:20;;;;;;;;;;;;;;;20.87;100.00;99003.03;332669;29;1236;-76
2023/07/03 00:17:31;;;;;;;;;;;;;;;20.86;100.00;99007.50;334458;29;1516;-76
2023/07/03 00:17:44;;;;;;;;;;;;;;;20.86;100.00;99004.84;331185;29;1406;-76
2023/07/03 00:17:54;;;;;;;;;;;;;;;20.87;100.00;99003.88;330294;29;1740;-77
2023/07/03 00:18:04;;;;;;;;;;;;;;;20.87;100.00;99001.19;328034;30;1230;-77
2023/07/03 00:18:15;;;;;;;;;;;;;;;20.88;100.00;99005.53;327914;29;2235;-76
2023/07/03 00:18:25;;;;;;;;;;;;;;;20.88;100.00;99010.88;328982;29;2507;-76
2023/07/03 00:18:35;;;;;;;;;;;;;;;20.89;100.00;98999.25;330507;29;1567;-76
2023/07/03 00:18:47;;;;;;;;;;;;;;;20.89;100.00;98999.25;325138;30;2353;-76
2023/07/03 00:18:58;;;;;;;;;;;;;;;20.90;100.00;99002.75;322371;30;1531;-76
2023/07/03 00:19:08;;;;;;;;;;;;;;;20.90;100.00;99003.56;321926;30;1710;-76
2023/07/03 00:19:26;;;;;;;;;;;;;;;20.90;100.00;99003.56;326860;30;866;-76
2023/07/03 00:19:36;;;;;;;;;;;;;;;20.89;100.00;99007.22;323826;30;1314;-76
2023/07/03 00:19:46;;;;;;;;;;;;;;;20.90;100.00;99003.56;318045;30;2253;-76
2023/07/03 00:19:57;;;;;;;;;;;;;;;20.90;100.00;99008.06;318651;30;2148;-76
2023/07/03 00:20:10;;;;;;;;;;;;;;;20.89;100.00;99009.88;320766;30;1231;-76
2023/07/03 00:20:20;;;;;;;;;;;;;;;20.89;100.00;99007.22;320891;30;1398;-77
2023/07/03 00:20:31;;;;;;;;;;;;;;;20.89;100.00;99007.22;323805;30;2677;-77
2023/07/03 00:20:41;;;;;;;;;;;;;;;20.89;100.00;99001.91;320367;30;3210;-77
2023/07/03 00:20:54;;;;;;;;;;;;;;;20.89;100.00;99009.03;313580;31;1373;-77
2023/07/03 00:21:04;;;;;;;;;;;;;;;20.90;100.00;99008.06;318412;31;1337;-77
2023/07/03 00:21:15;;;;;;;;;;;;;;;20.89;100.00;99011.69;316992;31;1798;-77
2023/07/03 00:21:25;;;;;;;;;;;;;;;20.88;100.00;99008.19;318021;30;2206;-76
2023/07/03 00:21:43;;;;;;;;;;;;;;;20.88;100.00;99008.19;322031;30;992;-76
2023/07/03 00:21:56;;;;;;;;;;;;;;;20.87;100.00;99001.19;317555;31;2946;-80
2023/07/03 00:22:06;;;;;;;;;;;;;;;20.88;100.00;99010.88;312947;31;865;-77
2023/07/03 00:22:16;;;;;;;;;;;;;;;20.88;100.00;99010.03;310302;31;3226;-76
2023/07/03 00:22:27;;;;;;;;;;;;;;;20.89;100.00;99007.22;309474;31;4465;-76
2023/07/03 00:22:37;;;;;;;;;;;;;;;20.88;100.00;99005.53;305287;32;1207;-76
2023/07/03 00:22:52;;;;;;;;;;;;;;;20.89;100.00;99007.22;306302;32;3733;-76
2023/07/03 00:23:04;;;;;;;;;;;;;;;20.88;100.00;99002.88;306514;31;4417;-76
2023/07/03 00:23:14;;;;;;;;;;;;;;;20.88;100.00;99005.53;307306;31;3831;-76
2023/07/03 00:23:25;;;;;;;;;;;;;;;20.88;100.00;99013.53;305776;32;2456;-76
2023/07/03 00:23:35;;;;;;;;;;;;;;;20.89;100.00;99017.03;305311;32;1332;-76
2023/07/03 00:23:46;;;;;;;;;;;;;;;20.89;100.00;99007.22;304514;32;3193;-76
2023/07/03 00:23:56;;;;;;;;;;;;;;;20.89;100.00;99011.69;303353;32;3840;-76
2023/07/03 00:24:06;;;;;;;;;;;;;;;20.88;100.00;99016.19;302084;32;1331;-76
2023/07/03 00:24:16;;;;;;;;;;;;;;;20.88;100.00;99016.19;296357;32;4077;-76
2023/07/03 00:24:27;;;;;;;;;;;;;;;20.89;100.00;99012.53;296136;32;5790;-77
2023/07/03 00:24:38;;;;;;;;;;;;;;;20.87;100.00;99009.19;298098;33;1377;-76
2023/07/03 00:24:48;;;;;;;;;;;;;;;20.88;100.00;99010.88;297226;33;5689;-76
2023/07/03 00:24:58;;;;;;;;;;;;;;;20.88;100.00;99010.03;294413;33;6666;-76
2023/07/03 00:25:08;;;;;;;;;;;;;;;20.88;100.00;99008.19;294761;32;5410;-76
2023/07/03 00:25:19;;;;;;;;;;;;;;;20.89;100.00;99009.03;297107;33;880;-76
2023/07/03 00:25:29;;;;;;;;;;;;;;;20.87;100.00;99017.16;296463;33;5819;-76
2023/07/03 00:25:39;;;;;;;;;;;;;;;20.87;100.00;99017.16;296102;33;3775;-75
2023/07/03 00:25:50;;;;;;;;;;;;;;;20.86;100.00;99006.66;295967;33;1378;-76
2023/07/03 00:26:00;;;;;;;;;;;;;;;20.86;100.00;99011.97;291398;33;5223;-76
2023/07/03 00:26:10;;;;;;;;;;;;;;;20.85;100.00;99013.81;289231;33;5628;-76
2023/07/03 00:26:20;;;;;;;;;;;;;;;20.85;100.00;99005.81;293925;33;811;-76
2023/07/03 00:26:31;;;;;;;;;;;;;;;20.85;100.00;99007.66;290087;33;7280;-76
2023/07/03 00:26:41;;;;;;;;;;;;;;;20.84;100.00;99012.13;287007;34;7304;-76
2023/07/03 00:26:51;;;;;;;;;;;;;;;20.84;100.00;99013.94;286549;34;753;-77
2023/07/03 00:27:01;;;;;;;;;;;;;;;20.84;100.00;99013.94;285644;34;8363;-77
2023/07/03 00:28:47;;;;;;;;;;;;;;;20.80;100.00;99015.22;2502454;27;19937;-77
2023/07/03 00:28:57;;;;;;;;;;;;;;;20.81;100.00;99019.53;354424;27;1371;-77
2023/07/03 00:29:07;;;;;;;;;;;;;;;20.81;100.00;99019.53;351723;28;1208;-76
2023/07/03 00:29:17;;;;;;;;;;;;;;;20.81;100.00;99017.72;350234;28;1373;-76
2023/07/03 00:29:28;;;;;;;;;;;;;;;20.81;100.00;99015.06;348957;28;1204;-76
2023/07/03 00:29:39;;;;;;;;;;;;;;;20.82;100.00;99016.75;350277;28;1273;-76
2023/07/03 00:29:49;;;;;;;;;;;;;;;20.83;100.00;99023.75;350261;28;835;-76
2023/07/03 00:29:59;;;;;;;;;;;;;;;20.83;100.00;99022.91;350212;28;1664;-76
2023/07/03 00:30:10;;;;;;;;;;;;;;;20.83;100.00;99018.44;350874;28;1194;-77
2023/07/03 00:30:20;;;;;;;;;;;;;;;20.82;100.00;99016.75;349912;28;1733;-77
2023/07/03 00:30:30;;;;;;;;;;;;;;;20.84;100.00;99014.78;350143;28;1312;-77
2023/07/03 00:30:41;;;;;;;;;;;;;;;20.83;100.00;99017.59;352140;28;1300;-76
2023/07/03 00:30:51;;;;;;;;;;;;;;;20.83;100.00;99023.75;352883;28;1321;-76
2023/07/03 00:31:01;;;;;;;;;;;;;;;20.83;100.00;99017.59;350136;28;1516;-76
2023/07/03 00:31:11;;;;;;;;;;;;;;;20.81;100.00;99020.38;348826;28;1247;-77
2023/07/03 00:31:22;;;;;;;;;;;;;;;20.82;100.00;99027.38;350346;28;1337;-76
2023/07/03 00:31:32;;;;;;;;;;;;;;;20.82;100.00;99026.53;351601;28;1436;-77
2023/07/03 00:31:42;;;;;;;;;;;;;;;20.81;100.00;99019.53;353186;28;854;-77
2023/07/03 00:31:52;;;;;;;;;;;;;;;20.80;100.00;99018.72;354485;27;1333;-77
2023/07/03 00:32:03;;;;;;;;;;;;;;;20.80;100.00;99024.03;354529;27;779;-77
2023/07/03 00:32:13;;;;;;;;;;;;;;;20.81;100.00;99019.53;351489;28;1251;-77
2023/07/03 00:32:23;;;;;;;;;;;;;;;20.79;100.00;99017.06;350073;28;1332;-76
2023/07/03 00:32:33;;;;;;;;;;;;;;;20.78;100.00;99015.38;348748;28;1361;-77
2023/07/03 00:32:44;;;;;;;;;;;;;;;20.78;100.00;99018.03;348914;28;1347;-77
2023/07/03 00:32:54;;;;;;;;;;;;;;;20.78;100.00;99010.06;348217;28;1038;-76
2023/07/03 00:33:04;;;;;;;;;;;;;;;20.79;100.00;99010.91;348799;28;1240;-76
2023/07/03 00:33:17;;;;;;;;;;;;;;;20.78;100.00;99020.69;348811;28;1329;-76
2023/07/03 00:33:27;;;;;;;;;;;;;;;20.79;100.00;99013.56;348707;28;1543;-77
2023/07/03 00:33:37;;;;;;;;;;;;;;;20.79;100.00;99017.06;348951;28;858;-76
2023/07/03 00:33:47;;;;;;;;;;;;;;;20.79;100.00;99021.53;349029;28;1009;-76
2023/07/03 00:33:58;;;;;;;;;;;;;;;20.79;100.00;99017.06;347452;28;827;-76
2023/07/03 00:34:08;;;;;;;;;;;;;;;20.77;100.00;99013.69;350247;28;829;-77
2023/07/03 00:34:18;;;;;;;;;;;;;;;20.80;100.00;99017.88;350246;28;775;-77
2023/07/03 00:34:29;;;;;;;;;;;;;;;20.80;100.00;99029.34;352129;28;1275;-76
2023/07/03 00:34:39;;;;;;;;;;;;;;;20.80;100.00;99017.88;348687;28;1226;-76
2023/07/03 00:34:49;;;;;;;;;;;;;;;20.79;100.00;99017.06;347443;28;1227;-76
2023/07/03 00:34:59;;;;;;;;;;;;;;;20.79;100.00;99009.09;350241;28;1323;-76
2023/07/03 00:35:10;;;;;;;;;;;;;;;20.80;100.00;99013.38;347360;28;1055;-77
2023/07/03 00:35:20;;;;;;;;;;;;;;;20.80;100.00;99017.88;346548;28;1144;-77
2023/07/03 00:35:30;;;;;;;;;;;;;;;20.79;100.00;99016.22;347658;28;883;-77
2023/07/03 00:35:41;;;;;;;;;;;;;;;20.79;100.00;99013.56;348432;28;855;-77
2023/07/03 00:35:51;;;;;;;;;;;;;;;20.78;100.00;99015.38;347623;28;1218;-77
2023/07/03 00:36:01;;;;;;;;;;;;;;;20.77;100.00;99012.88;351640;28;1431;-77
2023/07/03 00:36:11;;;;;;;;;;;;;;;20.77;100.00;99011.03;348738;28;1483;-77
2023/07/03 00:36:22;;;;;;;;;;;;;;;20.78;100.00;99009.22;348817;28;847;-78
2023/07/03 00:36:32;;;;;;;;;;;;;;;20.77;100.00;99013.69;348855;28;783;-77
2023/07/03 00:36:42;;;;;;;;;;;;;;;20.78;100.00;99015.38;346987;28;1220;-77
2023/07/03 00:36:53;;;;;;;;;;;;;;;20.78;100.00;99018.03;347274;28;1019;-77
2023/07/03 00:37:04;;;;;;;;;;;;;;;20.79;100.00;99010.91;344946;28;790;-77
2023/07/03 00:37:15;;;;;;;;;;;;;;;20.80;100.00;99017.88;344540;28;1210;-77
2023/07/03 00:37:26;;;;;;;;;;;;;;;20.79;100.00;99014.41;345308;28;1584;-79
2023/07/03 00:37:36;;;;;;;;;;;;;;;20.79;100.00;99014.41;344497;28;1266;-77
2023/07/03 00:37:46;;;;;;;;;;;;;;;20.78;100.00;99010.06;343282;28;1625;-77
2023/07/03 00:37:56;;;;;;;;;;;;;;;20.79;100.00;99013.56;345833;28;1379;-77
2023/07/03 00:38:07;;;;;;;;;;;;;;;20.78;100.00;99014.53;343592;28;1257;-77
2023/07/03 00:38:18;;;;;;;;;;;;;;;20.78;100.00;99015.38;342031;28;1241;-78
2023/07/03 00:38:28;;;;;;;;;;;;;;;20.78;100.00;99014.53;341622;28;1189;-78
2023/07/03 00:38:38;;;;;;;;;;;;;;;20.78;100.00;99014.53;339706;29;1513;-77
2023/07/03 00:38:48;;;;;;;;;;;;;;;20.78;100.00;99015.38;339551;29;860;-77
2023/07/03 00:38:59;;;;;;;;;;;;;;;20.76;100.00;99017.34;332716;29;1474;-77
2023/07/03 00:39:12;;;;;;;;;;;;;;;20.76;100.00;99009.38;334151;29;1775;-77
2023/07/03 00:39:23;;;;;;;;;;;;;;;20.77;100.00;99013.69;335744;29;1412;-77
2023/07/03 00:39:33;;;;;;;;;;;;;;;20.76;100.00;99009.38;333920;29;1280;-77
2023/07/03 00:39:43;;;;;;;;;;;;;;;20.77;100.00;99013.69;331812;29;1999;-77
2023/07/03 00:39:53;;;;;;;;;;;;;;;20.77;100.00;99018.19;332281;29;1583;-77
2023/07/03 00:40:06;;;;;;;;;;;;;;;20.77;100.00;99011.03;331841;29;767;-77
2023/07/03 00:40:17;;;;;;;;;;;;;;;20.77;100.00;99013.69;332894;29;822;-77
2023/07/03 00:40:27;;;;;;;;;;;;;;;20.77;100.00;99015.53;331458;29;1407;-77
2023/07/03 00:40:37;;;;;;;;;;;;;;;20.77;100.00;99008.38;329450;29;1807;-76
2023/07/03 00:40:47;;;;;;;;;;;;;;;20.78;100.00;99014.53;326983;30;855;-77
2023/07/03 00:40:57;;;;;;;;;;;;;;;20.79;100.00;99017.06;330431;29;2205;-77
2023/07/03 00:41:08;;;;;;;;;;;;;;;20.77;100.00;99011.03;332012;29;2277;-78
2023/07/03 00:41:18;;;;;;;;;;;;;;;20.77;100.00;99008.38;329586;29;1588;-78
2023/07/03 00:41:28;;;;;;;;;;;;;;;20.75;100.00;99013.00;324078;30;2410;-77
2023/07/03 00:41:38;;;;;;;;;;;;;;;20.74;100.00;99016.66;323152;30;2388;-77
2023/07/03 00:41:49;;;;;;;;;;;;;;;20.75;100.00;99010.34;325300;30;1304;-77
2023/07/03 00:41:59;;;;;;;;;;;;;;;20.75;100.00;99010.34;325680;30;823;-77
2023/07/03 00:42:10;;;;;;;;;;;;;;;20.76;100.00;99013.84;325027;30;1690;-77
2023/07/03 00:42:24;;;;;;;;;;;;;;;20.76;100.00;99014.69;326414;30;1421;-77
2023/07/03 00:42:34;;;;;;;;;;;;;;;20.77;100.00;99012.88;327720;30;1895;-77
2023/07/03 00:42:44;;;;;;;;;;;;;;;20.76;100.00;99017.34;325649;30;800;-77
2023/07/03 00:42:55;;;;;;;;;;;;;;;20.76;100.00;99012.03;320190;30;2479;-77
2023/07/03 00:43:05;;;;;;;;;;;;;;;20.77;100.00;99013.69;318076;30;2605;-77
2023/07/03 00:43:15;;;;;;;;;;;;;;;20.75;100.00;99018.31;323495;30;827;-77
2023/07/03 00:43:25;;;;;;;;;;;;;;;20.75;100.00;99015.66;321760;30;3112;-77
2023/07/03 00:43:40;;;;;;;;;;;;;;;20.77;100.00;99019.03;322721;30;2790;-75
2023/07/03 00:43:51;;;;;;;;;;;;;;;20.78;100.00;99015.38;322494;30;3122;-77
2023/07/03 00:44:01;;;;;;;;;;;;;;;20.78;100.00;99018.03;320079;30;808;-78
2023/07/03 00:44:12;;;;;;;;;;;;;;;20.78;100.00;99012.72;313427;31;2951;-77
2023/07/03 00:44:22;;;;;;;;;;;;;;;20.79;100.00;99016.22;313950;31;2319;-76
2023/07/03 00:44:34;;;;;;;;;;;;;;;20.77;100.00;99019.03;317657;31;1003;-77
2023/07/03 00:44:44;;;;;;;;;;;;;;;20.75;100.00;99020.97;318131;30;1891;-77
2023/07/03 00:44:55;;;;;;;;;;;;;;;20.74;100.00;99013.16;315597;31;2942;-77
2023/07/03 00:45:08;;;;;;;;;;;;;;;20.74;100.00;99019.31;313881;31;3915;-76
2023/07/03 00:45:18;;;;;;;;;;;;;;;20.73;100.00;99012.31;312916;31;1256;-76
2023/07/03 00:45:29;;;;;;;;;;;;;;;20.73;100.00;99019.44;310842;31;4606;-77
2023/07/03 00:45:39;;;;;;;;;;;;;;;20.73;100.00;99014.97;307461;31;4486;-77
2023/07/03 00:45:49;;;;;;;;;;;;;;;20.73;100.00;99022.94;306050;31;4428;-77
2023/07/03 00:45:59;;;;;;;;;;;;;;;20.73;100.00;99017.63;303007;32;1490;-77
2023/07/03 00:46:11;;;;;;;;;;;;;;;20.72;100.00;99015.94;305458;32;3939;-78
2023/07/03 00:46:21;;;;;;;;;;;;;;;20.71;100.00;99019.59;304785;32;4555;-76
2023/07/03 00:46:31;;;;;;;;;;;;;;;20.71;100.00;99019.59;304460;32;788;-78
2023/07/03 00:46:42;;;;;;;;;;;;;;;20.69;100.00;99016.22;301458;32;3853;-78
2023/07/03 00:46:54;;;;;;;;;;;;;;;20.67;100.00;99012.88;301019;32;2883;-77
2023/07/03 00:47:04;;;;;;;;;;;;;;;20.67;100.00;99015.53;303342;32;1178;-77
2023/07/03 00:47:15;;;;;;;;;;;;;;;20.66;100.00;99020.97;297241;33;790;-77
2023/07/03 00:47:25;;;;;;;;;;;;;;;20.63;100.00;99011.47;295376;33;5631;-77
2023/07/03 00:47:35;;;;;;;;;;;;;;;20.63;100.00;99022.09;291485;33;5731;-76
2023/07/03 00:47:45;;;;;;;;;;;;;;;20.63;100.00;99013.28;295180;33;727;-76
2023/07/03 00:47:56;;;;;;;;;;;;;;;20.61;100.00;99016.09;294517;33;7705;-77
2023/07/03 00:48:06;;;;;;;;;;;;;;;20.62;100.00;99015.09;294091;33;9899;-76
2023/07/03 00:48:16;;;;;;;;;;;;;;;20.62;100.00;99017.78;296397;33;751;-76
2023/07/03 00:48:27;;;;;;;;;;;;;;;20.62;100.00;99012.44;291363;33;5631;-78
2023/07/03 00:48:37;;;;;;;;;;;;;;;20.62;100.00;99014.28;289359;33;6125;-77
2023/07/03 00:48:47;;;;;;;;;;;;;;;20.60;100.00;99009.09;292596;33;1444;-77
2023/07/03 00:48:58;;;;;;;;;;;;;;;20.61;100.00;99013.44;290767;33;5063;-78
2023/07/03 00:49:09;;;;;;;;;;;;;;;20.63;100.00;99021.28;288956;34;3995;-76
2023/07/03 00:50:43;;;;;;;;;;;;;;;20.67;100.00;99012.03;2502112;27;19932;-75
2023/07/03 00:50:53;;;;;;;;;;;;;;;20.67;100.00;99018.19;354427;27;1450;-76
2023/07/03 00:51:03;;;;;;;;;;;;;;;20.68;100.00;99011.88;353035;28;1317;-76
2023/07/03 00:51:14;;;;;;;;;;;;;;;20.69;100.00;99010.91;353457;28;1139;-76
2023/07/03 00:51:24;;;;;;;;;;;;;;;20.67;100.00;99018.19;354647;27;825;-76
2023/07/03 00:51:34;;;;;;;;;;;;;;;20.66;100.00;99016.50;353102;28;1207;-76
2023/07/03 00:51:54;;;;;;;;;;;;;;;20.66;100.00;99016.50;351679;28;1231;-76
2023/07/03 00:52:04;;;;;;;;;;;;;;;20.67;100.00;99012.03;347467;28;1339;-77
2023/07/03 00:52:15;;;;;;;;;;;;;;;20.66;100.00;99013.84;347531;28;1191;-75
2023/07/03 00:52:25;;;;;;;;;;;;;;;20.67;100.00;99012.88;347482;28;721;-77
2023/07/03 00:52:37;;;;;;;;;;;;;;;20.66;100.00;99013.84;347398;28;1038;-78
2023/07/03 00:52:51;;;;;;;;;;;;;;;20.67;100.00;99018.19;347679;28;1467;-78
2023/07/03 00:53:03;;;;;;;;;;;;;;;20.67;100.00;99020.84;348013;28;1381;-78
2023/07/03 00:53:13;;;;;;;;;;;;;;;20.67;100.00;99012.88;347911;28;1330;-78
2023/07/03 00:53:24;;;;;;;;;;;;;;;20.68;100.00;99017.22;349359;28;977;-76
2023/07/03 00:53:34;;;;;;;;;;;;;;;20.66;100.00;99008.53;347658;28;1385;-76
2023/07/03 00:53:44;;;;;;;;;;;;;;;20.68;100.00;99009.22;349058;28;803;-77
2023/07/03 00:53:56;;;;;;;;;;;;;;;20.67;100.00;99012.88;349097;28;1188;-77
2023/07/03 00:54:06;;;;;;;;;;;;;;;20.67;100.00;99006.72;350191;28;1342;-77
2023/07/03 00:54:17;;;;;;;;;;;;;;;20.66;100.00;99011.19;350287;28;914;-77
2023/07/03 00:54:27;;;;;;;;;;;;;;;20.68;100.00;99014.53;348854;28;1262;-77
2023/07/03 00:54:39;;;;;;;;;;;;;;;20.66;100.00;99007.69;349034;28;1383;-76
2023/07/03 00:54:49;;;;;;;;;;;;;;;20.65;100.00;99009.50;349860;28;1223;-77
2023/07/03 00:55:00;;;;;;;;;;;;;;;20.65;100.00;99012.16;350327;28;1291;-77
2023/07/03 00:55:13;;;;;;;;;;;;;;;20.65;100.00;99009.50;350028;28;1001;-76
2023/07/03 00:55:23;;;;;;;;;;;;;;;20.65;100.00;99009.50;347225;28;1383;-77
2023/07/03 00:55:34;;;;;;;;;;;;;;;20.66;100.00;99015.66;350335;28;1177;-77
2023/07/03 00:55:44;;;;;;;;;;;;;;;20.66;100.00;99011.19;350263;28;1195;-77
2023/07/03 00:55:55;;;;;;;;;;;;;;;20.66;100.00;99013.00;350341;28;788;-77
2023/07/03 00:56:05;;;;;;;;;;;;;;;20.66;100.00;99016.50;350834;28;950;-77
2023/07/03 00:56:15;;;;;;;;;;;;;;;20.65;100.00;99014.81;348871;28;1332;-77
2023/07/03 00:56:25;;;;;;;;;;;;;;;20.66;100.00;99011.19;347724;28;760;-77
2023/07/03 00:56:36;;;;;;;;;;;;;;;20.66;100.00;99011.19;350806;28;1197;-77
2023/07/03 00:56:46;;;;;;;;;;;;;;;20.66;100.00;99005.03;347536;28;1314;-76
2023/07/03 00:56:56;;;;;;;;;;;;;;;20.66;100.00;99015.66;347442;28;893;-77
2023/07/03 00:57:09;;;;;;;;;;;;;;;20.65;100.00;99014.81;345979;28;1680;-77
2023/07/03 00:57:23;;;;;;;;;;;;;;;20.66;100.00;99013.84;343791;28;1457;-77
2023/07/03 00:57:33;;;;;;;;;;;;;;;20.65;100.00;99020.16;343726;28;805;-77
2023/07/03 00:57:43;;;;;;;;;;;;;;;20.65;100.00;99014.81;344857;28;789;-76
2023/07/03 00:57:53;;;;;;;;;;;;;;;20.66;100.00;99016.50;343518;28;853;-75
2023/07/03 00:58:03;;;;;;;;;;;;;;;20.65;100.00;99014.81;343436;28;772;-75
2023/07/03 00:58:15;;;;;;;;;;;;;;;20.67;100.00;99014.69;343517;28;930;-75
2023/07/03 00:58:25;;;;;;;;;;;;;;;20.65;100.00;99014.81;345876;28;1214;-76
2023/07/03 00:58:36;;;;;;;;;;;;;;;20.64;100.00;99012.31;347513;28;1399;-76
2023/07/03 00:58:46;;;;;;;;;;;;;;;20.64;100.00;99012.31;346432;28;1343;-79
2023/07/03 00:58:56;;;;;;;;;;;;;;;20.64;100.00;99015.81;344745;28;1302;-75
2023/07/03 00:59:06;;;;;;;;;;;;;;;20.63;100.00;99014.13;339614;28;1404;-76
2023/07/03 00:59:16;;;;;;;;;;;;;;;20.63;100.00;99016.78;339389;29;1358;-75
2023/07/03 00:59:27;;;;;;;;;;;;;;;20.63;100.00;99010.63;340916;29;876;-76
2023/07/03 00:59:37;;;;;;;;;;;;;;;20.63;100.00;99014.13;340787;28;1914;-76
2023/07/03 00:59:48;;;;;;;;;;;;;;;20.63;100.00;99014.13;341435;28;1270;-78
2023/07/03 00:59:59;;;;;;;;;;;;;;;20.63;100.00;99011.47;342210;28;844;-76
2023/07/03 01:00:09;;;;;;;;;;;;;;;20.62;100.00;99015.09;344955;28;1237;-78
2023/07/03 01:00:21;;;;;;;;;;;;;;;20.62;100.00;99009.78;341194;28;1209;-76
2023/07/03 01:00:34;;;;;;;;;;;;;;;20.63;100.00;99015.94;338370;29;1290;-77
2023/07/03 01:00:52;;;;;;;;;;;;;;;20.62;100.00;99008.94;331710;29;1252;-77
2023/07/03 01:01:04;;;;;;;;;;;;;;;20.62;100.00;99014.28;329387;29;2093;-77
2023/07/03 01:01:17;;;;;;;;;;;;;;;20.61;100.00;99013.44;334445;29;1352;-77
2023/07/03 01:01:47;;;;;;;;;;;;;;;20.62;100.00;99008.94;331929;29;2178;-76
2023/07/03 01:02:08;;;;;;;;;;;;;;;20.60;100.00;99014.41;325727;30;1267;-76